KMFD/MFD METAR and TAF weather

Enter ICAO airport designator
Station Type Date Time Source
KMFD METAR 2019/08/17 10:52 UTC NOAA

KMFD 171052Z 19006KT 9SM CLR 20/18 A2997 RMK AO2 SLP138 T02000178


Station Type Date Time Source
KMFD Decoded METAR 2019/08/17 10:52 UTC NOAA

Station name not available
Aug 17, 2019 - 06:52 AM EDT / 2019.08.17 1052 UTC
Wind: from the S (190 degrees) at 7 MPH (6 KT):0
Visibility: 9 mile(s):0
Sky conditions: clear
Temperature: 68.0 F (20.0 C)
Dew Point: 64.0 F (17.8 C)
Relative Humidity: 87%
Pressure (altimeter): 29.97 in. Hg (1014 hPa)
ob: KMFD 171052Z 19006KT 9SM CLR 20/18 A2997 RMK AO2 SLP138 T02000178
cycle: 11

Station Type Date Time Source
KMFD TAF 2019/08/17 06:30 UTC NOAA

TAF KMFD 170528Z 1706/1806 18006KT P6SM SCT040 SCT250
FM171000 21008KT P6SM SCT030 BKN060
TEMPO 1710/1714 BKN030
FM171500 22009KT P6SM SCT030 BKN040 PROB30 1720/1724 5SM -TSRA BR BKN030CB
FM180000 19006KT P6SM BKN100

Example: see airport list